Robinson, Texas
Current Conditions -  °F | °C
As of 1:55 PM on Saturday 20 Dec 2014 (Local Time) from KCNW Reporting Station
Haze Haze  
Wind Chill: 50°   Ceiling: 1200
Heat Index: 50°   Visibility: 5mi
Dew Point: 46°   Wind: 6mph
Humidity: 87%   Direction: 340°NNW
Pressure: 30.2"   Gusts: NA
Location:  31.4556°N, 97.0979°W
Report Text: KCNW 201955Z 34005KT 5SM HZ OVC012 10/08 A3020
Loading
Personal Weather Stations






























Interactive Weather Map New forecast layout! Learn more

10-Day Weather Forecast

Advertisements
Track Severe Weather on mobile